sensor_id;sensor_type;location;lat;lon;timestamp;P1;durP1;ratioP1;P2;durP2;ratioP2
2548;SDS011;1284;53.520;10.248;2022-09-25T00:00:18;13.27;;;5.32;;
2548;SDS011;1284;53.520;10.248;2022-09-25T00:02:43;17.67;;;6.32;;
2548;SDS011;1284;53.520;10.248;2022-09-25T00:05:09;16.02;;;5.75;;
2548;SDS011;1284;53.520;10.248;2022-09-25T00:07:34;14.98;;;5.78;;
2548;SDS011;1284;53.520;10.248;2022-09-25T00:09:59;11.77;;;5.15;;
2548;SDS011;1284;53.520;10.248;2022-09-25T00:12:25;11.95;;;5.05;;
2548;SDS011;1284;53.520;10.248;2022-09-25T00:14:51;15.38;;;5.60;;
2548;SDS011;1284;53.520;10.248;2022-09-25T00:17:16;12.07;;;4.82;;
2548;SDS011;1284;53.520;10.248;2022-09-25T00:19:42;11.93;;;5.05;;
2548;SDS011;1284;53.520;10.248;2022-09-25T00:22:21;13.63;;;5.38;;
2548;SDS011;1284;53.520;10.248;2022-09-25T00:24:48;15.30;;;5.40;;
2548;SDS011;1284;53.520;10.248;2022-09-25T00:27:15;14.25;;;5.85;;
2548;SDS011;1284;53.520;10.248;2022-09-25T00:29:42;11.52;;;5.38;;
2548;SDS011;1284;53.520;10.248;2022-09-25T00:32:11;13.35;;;4.97;;
2548;SDS011;1284;53.520;10.248;2022-09-25T00:34:37;14.88;;;5.30;;
2548;SDS011;1284;53.520;10.248;2022-09-25T00:37:03;11.18;;;4.63;;
2548;SDS011;1284;53.520;10.248;2022-09-25T00:39:29;15.00;;;4.72;;
2548;SDS011;1284;53.520;10.248;2022-09-25T00:41:55;14.18;;;4.65;;
2548;SDS011;1284;53.520;10.248;2022-09-25T00:47:24;11.65;;;4.70;;
2548;SDS011;1284;53.520;10.248;2022-09-25T00:50:00;14.48;;;5.45;;
2548;SDS011;1284;53.520;10.248;2022-09-25T00:52:28;13.02;;;5.63;;
2548;SDS011;1284;53.520;10.248;2022-09-25T00:54:57;14.50;;;5.22;;
2548;SDS011;1284;53.520;10.248;2022-09-25T00:57:26;11.30;;;4.82;;
2548;SDS011;1284;53.520;10.248;2022-09-25T00:59:56;11.95;;;5.20;;
2548;SDS011;1284;53.520;10.248;2022-09-25T01:04:55;11.25;;;5.07;;
2548;SDS011;1284;53.520;10.248;2022-09-25T01:07:23;10.55;;;4.97;;
2548;SDS011;1284;53.520;10.248;2022-09-25T01:09:49;11.95;;;4.90;;
2548;SDS011;1284;53.520;10.248;2022-09-25T01:12:14;11.48;;;4.47;;
2548;SDS011;1284;53.520;10.248;2022-09-25T01:14:40;14.75;;;5.15;;
2548;SDS011;1284;53.520;10.248;2022-09-25T01:17:21;12.93;;;4.93;;
2548;SDS011;1284;53.520;10.248;2022-09-25T01:31:00;12.93;;;5.50;;
2548;SDS011;1284;53.520;10.248;2022-09-25T01:33:35;15.15;;;5.13;;
2548;SDS011;1284;53.520;10.248;2022-09-25T01:36:14;12.88;;;5.13;;
2548;SDS011;1284;53.520;10.248;2022-09-25T01:38:45;12.25;;;5.05;;
2548;SDS011;1284;53.520;10.248;2022-09-25T01:44:05;11.77;;;4.97;;
2548;SDS011;1284;53.520;10.248;2022-09-25T01:46:41;14.70;;;5.28;;
2548;SDS011;1284;53.520;10.248;2022-09-25T01:49:45;11.25;;;4.80;;
2548;SDS011;1284;53.520;10.248;2022-09-25T01:52:07;9.88;;;4.80;;
2548;SDS011;1284;53.520;10.248;2022-09-25T01:54:44;18.98;;;5.00;;
2548;SDS011;1284;53.520;10.248;2022-09-25T01:59:56;15.73;;;5.00;;
2548;SDS011;1284;53.520;10.248;2022-09-25T02:02:37;14.07;;;6.28;;
2548;SDS011;1284;53.520;10.248;2022-09-25T02:05:16;14.30;;;4.55;;
2548;SDS011;1284;53.520;10.248;2022-09-25T02:07:50;16.00;;;5.35;;
2548;SDS011;1284;53.520;10.248;2022-09-25T02:10:24;17.27;;;5.35;;
2548;SDS011;1284;53.520;10.248;2022-09-25T02:12:55;12.57;;;4.70;;
2548;SDS011;1284;53.520;10.248;2022-09-25T02:15:28;11.13;;;3.70;;
2548;SDS011;1284;53.520;10.248;2022-09-25T02:18:00;11.48;;;5.07;;
2548;SDS011;1284;53.520;10.248;2022-09-25T02:23:55;13.57;;;5.35;;
2548;SDS011;1284;53.520;10.248;2022-09-25T02:26:35;14.15;;;5.20;;
2548;SDS011;1284;53.520;10.248;2022-09-25T02:29:02;13.02;;;4.80;;
2548;SDS011;1284;53.520;10.248;2022-09-25T02:31:33;11.40;;;4.88;;
2548;SDS011;1284;53.520;10.248;2022-09-25T02:34:04;13.45;;;4.50;;
2548;SDS011;1284;53.520;10.248;2022-09-25T02:36:31;16.05;;;4.97;;
2548;SDS011;1284;53.520;10.248;2022-09-25T02:38:57;16.27;;;5.28;;
2548;SDS011;1284;53.520;10.248;2022-09-25T02:41:48;10.75;;;4.53;;
2548;SDS011;1284;53.520;10.248;2022-09-25T02:44:53;11.95;;;4.40;;
2548;SDS011;1284;53.520;10.248;2022-09-25T02:47:34;11.32;;;4.38;;
2548;SDS011;1284;53.520;10.248;2022-09-25T02:50:21;15.48;;;4.90;;
2548;SDS011;1284;53.520;10.248;2022-09-25T02:52:52;11.98;;;4.45;;
2548;SDS011;1284;53.520;10.248;2022-09-25T03:00:41;11.20;;;4.00;;
2548;SDS011;1284;53.520;10.248;2022-09-25T03:03:10;12.48;;;4.40;;
2548;SDS011;1284;53.520;10.248;2022-09-25T03:05:39;11.07;;;4.65;;
2548;SDS011;1284;53.520;10.248;2022-09-25T03:08:05;10.18;;;3.88;;
2548;SDS011;1284;53.520;10.248;2022-09-25T03:10:50;12.07;;;4.30;;
2548;SDS011;1284;53.520;10.248;2022-09-25T03:13:17;8.63;;;3.90;;
2548;SDS011;1284;53.520;10.248;2022-09-25T03:15:50;9.63;;;3.88;;
2548;SDS011;1284;53.520;10.248;2022-09-25T03:18:19;9.65;;;4.22;;
2548;SDS011;1284;53.520;10.248;2022-09-25T03:20:46;10.02;;;3.63;;
2548;SDS011;1284;53.520;10.248;2022-09-25T03:23:11;9.02;;;3.95;;
2548;SDS011;1284;53.520;10.248;2022-09-25T03:25:37;9.98;;;4.18;;
2548;SDS011;1284;53.520;10.248;2022-09-25T03:28:05;9.02;;;4.10;;
2548;SDS011;1284;53.520;10.248;2022-09-25T03:30:33;10.07;;;4.22;;
2548;SDS011;1284;53.520;10.248;2022-09-25T03:32:58;9.52;;;4.07;;
2548;SDS011;1284;53.520;10.248;2022-09-25T03:35:23;12.10;;;4.03;;
2548;SDS011;1284;53.520;10.248;2022-09-25T03:37:49;15.00;;;4.15;;
2548;SDS011;1284;53.520;10.248;2022-09-25T03:40:15;9.55;;;3.90;;
2548;SDS011;1284;53.520;10.248;2022-09-25T03:42:40;16.40;;;4.15;;
2548;SDS011;1284;53.520;10.248;2022-09-25T03:45:07;11.63;;;4.80;;
2548;SDS011;1284;53.520;10.248;2022-09-25T03:47:35;13.40;;;4.90;;
2548;SDS011;1284;53.520;10.248;2022-09-25T03:50:01;10.77;;;4.20;;
2548;SDS011;1284;53.520;10.248;2022-09-25T03:52:26;8.77;;;3.65;;
2548;SDS011;1284;53.520;10.248;2022-09-25T03:54:51;9.73;;;4.40;;
2548;SDS011;1284;53.520;10.248;2022-09-25T03:57:17;12.48;;;4.72;;
2548;SDS011;1284;53.520;10.248;2022-09-25T03:59:42;14.10;;;4.57;;
2548;SDS011;1284;53.520;10.248;2022-09-25T04:02:08;11.38;;;3.78;;
2548;SDS011;1284;53.520;10.248;2022-09-25T04:04:34;12.20;;;4.65;;
2548;SDS011;1284;53.520;10.248;2022-09-25T04:07:01;12.65;;;4.95;;
2548;SDS011;1284;53.520;10.248;2022-09-25T04:09:27;12.52;;;4.00;;
2548;SDS011;1284;53.520;10.248;2022-09-25T04:11:52;13.75;;;4.03;;
2548;SDS011;1284;53.520;10.248;2022-09-25T04:14:20;9.45;;;4.13;;
2548;SDS011;1284;53.520;10.248;2022-09-25T04:16:45;11.75;;;4.55;;
2548;SDS011;1284;53.520;10.248;2022-09-25T04:19:11;8.85;;;4.38;;
2548;SDS011;1284;53.520;10.248;2022-09-25T04:21:36;14.70;;;4.25;;
2548;SDS011;1284;53.520;10.248;2022-09-25T04:24:02;10.95;;;4.10;;
2548;SDS011;1284;53.520;10.248;2022-09-25T04:26:46;11.65;;;3.85;;
2548;SDS011;1284;53.520;10.248;2022-09-25T04:29:11;11.48;;;4.13;;
2548;SDS011;1284;53.520;10.248;2022-09-25T04:31:38;9.18;;;3.53;;
2548;SDS011;1284;53.520;10.248;2022-09-25T04:34:04;11.45;;;4.57;;
2548;SDS011;1284;53.520;10.248;2022-09-25T04:36:29;12.90;;;4.45;;
2548;SDS011;1284;53.520;10.248;2022-09-25T04:38:54;12.57;;;4.10;;
2548;SDS011;1284;53.520;10.248;2022-09-25T04:41:20;15.00;;;3.97;;
2548;SDS011;1284;53.520;10.248;2022-09-25T04:43:45;12.70;;;4.30;;
2548;SDS011;1284;53.520;10.248;2022-09-25T04:46:12;13.23;;;4.78;;
2548;SDS011;1284;53.520;10.248;2022-09-25T04:48:38;14.65;;;4.40;;
2548;SDS011;1284;53.520;10.248;2022-09-25T04:51:03;12.20;;;4.53;;
2548;SDS011;1284;53.520;10.248;2022-09-25T04:53:30;15.88;;;5.28;;
2548;SDS011;1284;53.520;10.248;2022-09-25T04:56:02;11.15;;;4.63;;
2548;SDS011;1284;53.520;10.248;2022-09-25T04:58:31;14.35;;;4.22;;
2548;SDS011;1284;53.520;10.248;2022-09-25T05:01:00;15.65;;;5.05;;
2548;SDS011;1284;53.520;10.248;2022-09-25T05:03:31;15.27;;;4.43;;
2548;SDS011;1284;53.520;10.248;2022-09-25T05:05:56;13.77;;;4.28;;
2548;SDS011;1284;53.520;10.248;2022-09-25T05:08:23;11.63;;;4.63;;
2548;SDS011;1284;53.520;10.248;2022-09-25T05:10:49;14.05;;;4.18;;
2548;SDS011;1284;53.520;10.248;2022-09-25T05:13:14;14.57;;;4.95;;
2548;SDS011;1284;53.520;10.248;2022-09-25T05:15:40;13.43;;;4.97;;
2548;SDS011;1284;53.520;10.248;2022-09-25T05:18:06;14.77;;;5.80;;
2548;SDS011;1284;53.520;10.248;2022-09-25T05:20:37;14.07;;;5.03;;
2548;SDS011;1284;53.520;10.248;2022-09-25T05:23:03;15.60;;;5.53;;
2548;SDS011;1284;53.520;10.248;2022-09-25T05:25:28;14.85;;;4.47;;
2548;SDS011;1284;53.520;10.248;2022-09-25T05:27:56;13.02;;;4.32;;
2548;SDS011;1284;53.520;10.248;2022-09-25T05:30:23;14.63;;;5.05;;
2548;SDS011;1284;53.520;10.248;2022-09-25T05:32:50;10.73;;;4.53;;
2548;SDS011;1284;53.520;10.248;2022-09-25T05:35:17;13.95;;;5.70;;
2548;SDS011;1284;53.520;10.248;2022-09-25T05:37:43;11.57;;;4.35;;
2548;SDS011;1284;53.520;10.248;2022-09-25T05:40:09;13.57;;;4.88;;
2548;SDS011;1284;53.520;10.248;2022-09-25T05:42:35;15.23;;;5.93;;
2548;SDS011;1284;53.520;10.248;2022-09-25T05:45:00;15.90;;;5.50;;
2548;SDS011;1284;53.520;10.248;2022-09-25T05:47:25;14.88;;;5.65;;
2548;SDS011;1284;53.520;10.248;2022-09-25T05:49:51;14.90;;;5.80;;
2548;SDS011;1284;53.520;10.248;2022-09-25T05:52:16;18.05;;;5.93;;
2548;SDS011;1284;53.520;10.248;2022-09-25T05:54:42;14.65;;;5.22;;
2548;SDS011;1284;53.520;10.248;2022-09-25T05:57:07;13.25;;;5.38;;
2548;SDS011;1284;53.520;10.248;2022-09-25T05:59:32;14.95;;;5.72;;
2548;SDS011;1284;53.520;10.248;2022-09-25T06:01:59;14.23;;;5.40;;
2548;SDS011;1284;53.520;10.248;2022-09-25T06:04:24;14.95;;;6.40;;
2548;SDS011;1284;53.520;10.248;2022-09-25T06:06:50;17.02;;;5.47;;
2548;SDS011;1284;53.520;10.248;2022-09-25T06:09:16;15.73;;;5.80;;
2548;SDS011;1284;53.520;10.248;2022-09-25T06:11:42;15.27;;;4.72;;
2548;SDS011;1284;53.520;10.248;2022-09-25T06:14:12;13.05;;;4.63;;
2548;SDS011;1284;53.520;10.248;2022-09-25T06:16:38;19.27;;;6.47;;
2548;SDS011;1284;53.520;10.248;2022-09-25T06:19:03;19.10;;;6.40;;
2548;SDS011;1284;53.520;10.248;2022-09-25T06:21:29;16.33;;;5.40;;
2548;SDS011;1284;53.520;10.248;2022-09-25T06:23:54;16.23;;;5.57;;
2548;SDS011;1284;53.520;10.248;2022-09-25T06:26:20;13.27;;;5.32;;
2548;SDS011;1284;53.520;10.248;2022-09-25T06:28:46;15.65;;;4.82;;
2548;SDS011;1284;53.520;10.248;2022-09-25T06:31:11;19.33;;;6.05;;
2548;SDS011;1284;53.520;10.248;2022-09-25T06:33:36;14.98;;;6.20;;
2548;SDS011;1284;53.520;10.248;2022-09-25T06:36:03;18.48;;;5.68;;
2548;SDS011;1284;53.520;10.248;2022-09-25T06:38:30;17.77;;;6.05;;
2548;SDS011;1284;53.520;10.248;2022-09-25T06:40:57;15.90;;;5.18;;
2548;SDS011;1284;53.520;10.248;2022-09-25T06:43:23;15.57;;;5.28;;
2548;SDS011;1284;53.520;10.248;2022-09-25T06:45:49;11.77;;;4.25;;
2548;SDS011;1284;53.520;10.248;2022-09-25T06:48:15;11.50;;;4.93;;
2548;SDS011;1284;53.520;10.248;2022-09-25T06:50:45;14.38;;;5.57;;
2548;SDS011;1284;53.520;10.248;2022-09-25T06:53:14;12.02;;;4.95;;
2548;SDS011;1284;53.520;10.248;2022-09-25T06:55:41;13.32;;;5.18;;
2548;SDS011;1284;53.520;10.248;2022-09-25T06:58:10;14.52;;;5.93;;
2548;SDS011;1284;53.520;10.248;2022-09-25T07:00:37;17.85;;;4.68;;
2548;SDS011;1284;53.520;10.248;2022-09-25T07:03:02;14.48;;;5.63;;
2548;SDS011;1284;53.520;10.248;2022-09-25T07:05:47;13.98;;;4.55;;
2548;SDS011;1284;53.520;10.248;2022-09-25T07:08:13;16.33;;;5.10;;
2548;SDS011;1284;53.520;10.248;2022-09-25T07:10:47;19.10;;;5.93;;
2548;SDS011;1284;53.520;10.248;2022-09-25T07:13:17;11.82;;;4.93;;
2548;SDS011;1284;53.520;10.248;2022-09-25T07:15:52;11.98;;;4.70;;
2548;SDS011;1284;53.520;10.248;2022-09-25T07:18:19;12.90;;;4.88;;
2548;SDS011;1284;53.520;10.248;2022-09-25T07:20:45;17.92;;;5.03;;
2548;SDS011;1284;53.520;10.248;2022-09-25T07:23:14;14.93;;;4.50;;
2548;SDS011;1284;53.520;10.248;2022-09-25T07:25:41;14.82;;;4.65;;
2548;SDS011;1284;53.520;10.248;2022-09-25T07:28:07;12.10;;;4.75;;
2548;SDS011;1284;53.520;10.248;2022-09-25T07:30:33;11.85;;;4.50;;
2548;SDS011;1284;53.520;10.248;2022-09-25T07:32:59;12.38;;;5.00;;
2548;SDS011;1284;53.520;10.248;2022-09-25T07:35:25;10.88;;;4.35;;
2548;SDS011;1284;53.520;10.248;2022-09-25T07:37:51;12.88;;;4.55;;
2548;SDS011;1284;53.520;10.248;2022-09-25T07:40:20;17.20;;;5.03;;
2548;SDS011;1284;53.520;10.248;2022-09-25T07:42:45;15.93;;;4.80;;
2548;SDS011;1284;53.520;10.248;2022-09-25T07:45:11;11.75;;;4.43;;
2548;SDS011;1284;53.520;10.248;2022-09-25T07:47:36;13.15;;;4.22;;
2548;SDS011;1284;53.520;10.248;2022-09-25T07:50:02;15.80;;;5.25;;
2548;SDS011;1284;53.520;10.248;2022-09-25T07:52:27;12.23;;;5.15;;
2548;SDS011;1284;53.520;10.248;2022-09-25T07:54:53;16.25;;;5.43;;
2548;SDS011;1284;53.520;10.248;2022-09-25T07:57:18;19.02;;;5.40;;
2548;SDS011;1284;53.520;10.248;2022-09-25T07:59:47;11.80;;;4.57;;
2548;SDS011;1284;53.520;10.248;2022-09-25T08:02:13;13.45;;;4.75;;
2548;SDS011;1284;53.520;10.248;2022-09-25T08:04:39;13.65;;;4.78;;
2548;SDS011;1284;53.520;10.248;2022-09-25T08:07:04;14.05;;;4.95;;
2548;SDS011;1284;53.520;10.248;2022-09-25T08:09:30;11.55;;;4.95;;
2548;SDS011;1284;53.520;10.248;2022-09-25T08:11:56;10.60;;;4.82;;
2548;SDS011;1284;53.520;10.248;2022-09-25T08:14:21;15.90;;;5.03;;
2548;SDS011;1284;53.520;10.248;2022-09-25T08:16:47;13.05;;;5.28;;
2548;SDS011;1284;53.520;10.248;2022-09-25T08:19:13;13.88;;;4.90;;
2548;SDS011;1284;53.520;10.248;2022-09-25T08:21:42;14.68;;;5.10;;
2548;SDS011;1284;53.520;10.248;2022-09-25T08:24:09;13.10;;;4.20;;
2548;SDS011;1284;53.520;10.248;2022-09-25T08:26:35;14.98;;;5.35;;
2548;SDS011;1284;53.520;10.248;2022-09-25T08:29:01;13.40;;;4.72;;
2548;SDS011;1284;53.520;10.248;2022-09-25T08:31:28;13.38;;;5.13;;
2548;SDS011;1284;53.520;10.248;2022-09-25T08:33:54;13.32;;;4.22;;
2548;SDS011;1284;53.520;10.248;2022-09-25T08:36:19;11.68;;;4.85;;
2548;SDS011;1284;53.520;10.248;2022-09-25T08:38:46;11.30;;;4.85;;
2548;SDS011;1284;53.520;10.248;2022-09-25T08:41:21;10.55;;;4.70;;
2548;SDS011;1284;53.520;10.248;2022-09-25T08:43:53;9.73;;;4.22;;
2548;SDS011;1284;53.520;10.248;2022-09-25T08:46:22;9.68;;;4.35;;
2548;SDS011;1284;53.520;10.248;2022-09-25T08:49:12;10.15;;;4.30;;
2548;SDS011;1284;53.520;10.248;2022-09-25T08:51:43;10.98;;;4.55;;
2548;SDS011;1284;53.520;10.248;2022-09-25T08:54:24;12.32;;;4.72;;
2548;SDS011;1284;53.520;10.248;2022-09-25T08:57:39;11.88;;;5.00;;
2548;SDS011;1284;53.520;10.248;2022-09-25T08:59:52;10.07;;;4.20;;
2548;SDS011;1284;53.520;10.248;2022-09-25T09:02:21;15.13;;;5.95;;
2548;SDS011;1284;53.520;10.248;2022-09-25T09:04:54;11.32;;;4.32;;
2548;SDS011;1284;53.520;10.248;2022-09-25T09:07:28;11.10;;;4.20;;
2548;SDS011;1284;53.520;10.248;2022-09-25T09:10:15;9.82;;;4.50;;
2548;SDS011;1284;53.520;10.248;2022-09-25T09:13:10;11.48;;;4.30;;
2548;SDS011;1284;53.520;10.248;2022-09-25T09:15:45;9.02;;;3.97;;
2548;SDS011;1284;53.520;10.248;2022-09-25T09:18:27;10.98;;;4.72;;
2548;SDS011;1284;53.520;10.248;2022-09-25T09:20:59;12.20;;;4.50;;
2548;SDS011;1284;53.520;10.248;2022-09-25T09:23:42;11.43;;;4.10;;
2548;SDS011;1284;53.520;10.248;2022-09-25T09:26:21;8.15;;;4.20;;
2548;SDS011;1284;53.520;10.248;2022-09-25T09:29:02;8.63;;;3.95;;
2548;SDS011;1284;53.520;10.248;2022-09-25T09:36:49;10.63;;;4.35;;
2548;SDS011;1284;53.520;10.248;2022-09-25T09:47:21;10.32;;;4.35;;
2548;SDS011;1284;53.520;10.248;2022-09-25T09:49:56;7.82;;;3.95;;
2548;SDS011;1284;53.520;10.248;2022-09-25T09:52:37;8.05;;;3.78;;
2548;SDS011;1284;53.520;10.248;2022-09-25T09:57:48;6.53;;;3.28;;
2548;SDS011;1284;53.520;10.248;2022-09-25T10:00:18;9.23;;;3.75;;
2548;SDS011;1284;53.520;10.248;2022-09-25T10:05:48;7.03;;;3.03;;
2548;SDS011;1284;53.520;10.248;2022-09-25T10:08:15;4.97;;;2.75;;
2548;SDS011;1284;53.520;10.248;2022-09-25T10:10:42;5.22;;;2.92;;
2548;SDS011;1284;53.520;10.248;2022-09-25T10:13:15;4.47;;;2.78;;
2548;SDS011;1284;53.520;10.248;2022-09-25T10:18:22;7.10;;;3.13;;
2548;SDS011;1284;53.520;10.248;2022-09-25T10:21:00;4.60;;;2.20;;
2548;SDS011;1284;53.520;10.248;2022-09-25T10:25:58;6.45;;;2.80;;
2548;SDS011;1284;53.520;10.248;2022-09-25T10:28:31;3.83;;;2.35;;
2548;SDS011;1284;53.520;10.248;2022-09-25T10:31:00;7.03;;;2.70;;
2548;SDS011;1284;53.520;10.248;2022-09-25T10:33:30;5.60;;;2.75;;
2548;SDS011;1284;53.520;10.248;2022-09-25T10:35:56;5.50;;;2.92;;
2548;SDS011;1284;53.520;10.248;2022-09-25T10:41:01;8.20;;;3.05;;
2548;SDS011;1284;53.520;10.248;2022-09-25T10:43:30;7.88;;;3.53;;
2548;SDS011;1284;53.520;10.248;2022-09-25T10:46:06;7.43;;;3.35;;
2548;SDS011;1284;53.520;10.248;2022-09-25T10:48:39;7.05;;;2.92;;
2548;SDS011;1284;53.520;10.248;2022-09-25T10:51:24;6.05;;;3.10;;
2548;SDS011;1284;53.520;10.248;2022-09-25T10:54:10;5.15;;;2.65;;
2548;SDS011;1284;53.520;10.248;2022-09-25T10:56:37;3.17;;;1.88;;
2548;SDS011;1284;53.520;10.248;2022-09-25T10:59:19;3.33;;;1.75;;
2548;SDS011;1284;53.520;10.248;2022-09-25T11:01:47;2.85;;;1.70;;
2548;SDS011;1284;53.520;10.248;2022-09-25T11:04:22;3.40;;;2.00;;
2548;SDS011;1284;53.520;10.248;2022-09-25T11:06:54;4.00;;;2.03;;
2548;SDS011;1284;53.520;10.248;2022-09-25T11:09:22;4.90;;;1.85;;
2548;SDS011;1284;53.520;10.248;2022-09-25T11:12:03;3.42;;;2.10;;
2548;SDS011;1284;53.520;10.248;2022-09-25T11:14:52;5.50;;;1.85;;
2548;SDS011;1284;53.520;10.248;2022-09-25T11:17:31;3.90;;;2.10;;
2548;SDS011;1284;53.520;10.248;2022-09-25T11:22:42;4.03;;;2.00;;
2548;SDS011;1284;53.520;10.248;2022-09-25T11:28:09;4.35;;;2.58;;
2548;SDS011;1284;53.520;10.248;2022-09-25T11:30:45;4.57;;;2.00;;
2548;SDS011;1284;53.520;10.248;2022-09-25T11:41:25;7.18;;;3.30;;
2548;SDS011;1284;53.520;10.248;2022-09-25T11:49:37;5.00;;;2.63;;
2548;SDS011;1284;53.520;10.248;2022-09-25T11:52:18;3.63;;;2.22;;
2548;SDS011;1284;53.520;10.248;2022-09-25T12:00:51;3.63;;;2.13;;
2548;SDS011;1284;53.520;10.248;2022-09-25T12:03:46;3.88;;;2.05;;
2548;SDS011;1284;53.520;10.248;2022-09-25T12:09:17;5.05;;;2.58;;
2548;SDS011;1284;53.520;10.248;2022-09-25T12:20:19;4.63;;;2.83;;
2548;SDS011;1284;53.520;10.248;2022-09-25T12:31:23;2.97;;;1.83;;
2548;SDS011;1284;53.520;10.248;2022-09-25T12:35:07;3.65;;;1.85;;
2548;SDS011;1284;53.520;10.248;2022-09-25T12:39:58;4.03;;;2.08;;
2548;SDS011;1284;53.520;10.248;2022-09-25T12:45:32;9.40;;;3.33;;
2548;SDS011;1284;53.520;10.248;2022-09-25T12:48:14;5.38;;;2.03;;
2548;SDS011;1284;53.520;10.248;2022-09-25T12:50:50;3.65;;;2.15;;
2548;SDS011;1284;53.520;10.248;2022-09-25T12:53:30;2.47;;;1.48;;
2548;SDS011;1284;53.520;10.248;2022-09-25T12:56:35;3.08;;;1.83;;
2548;SDS011;1284;53.520;10.248;2022-09-25T13:01:43;1.85;;;1.40;;
2548;SDS011;1284;53.520;10.248;2022-09-25T13:07:30;3.20;;;1.52;;
2548;SDS011;1284;53.520;10.248;2022-09-25T13:10:01;3.42;;;1.58;;
2548;SDS011;1284;53.520;10.248;2022-09-25T13:12:41;3.35;;;1.65;;
2548;SDS011;1284;53.520;10.248;2022-09-25T13:18:11;2.30;;;1.65;;
2548;SDS011;1284;53.520;10.248;2022-09-25T13:23:14;3.03;;;1.20;;
2548;SDS011;1284;53.520;10.248;2022-09-25T13:25:49;2.00;;;1.60;;
2548;SDS011;1284;53.520;10.248;2022-09-25T13:28:22;1.35;;;1.08;;
2548;SDS011;1284;53.520;10.248;2022-09-25T13:36:33;1.48;;;1.20;;
2548;SDS011;1284;53.520;10.248;2022-09-25T13:39:03;1.85;;;0.98;;
2548;SDS011;1284;53.520;10.248;2022-09-25T13:42:01;3.60;;;1.42;;
2548;SDS011;1284;53.520;10.248;2022-09-25T13:50:05;3.67;;;1.55;;
2548;SDS011;1284;53.520;10.248;2022-09-25T14:00:20;3.15;;;0.93;;
2548;SDS011;1284;53.520;10.248;2022-09-25T14:02:46;3.63;;;1.25;;
2548;SDS011;1284;53.520;10.248;2022-09-25T14:05:13;1.15;;;0.90;;
2548;SDS011;1284;53.520;10.248;2022-09-25T14:07:42;2.80;;;1.35;;
2548;SDS011;1284;53.520;10.248;2022-09-25T14:10:09;1.10;;;1.00;;
2548;SDS011;1284;53.520;10.248;2022-09-25T14:12:46;2.03;;;1.30;;
2548;SDS011;1284;53.520;10.248;2022-09-25T14:15:25;1.23;;;0.80;;
2548;SDS011;1284;53.520;10.248;2022-09-25T14:18:11;1.88;;;1.05;;
2548;SDS011;1284;53.520;10.248;2022-09-25T14:20:41;1.33;;;1.00;;
2548;SDS011;1284;53.520;10.248;2022-09-25T14:23:14;3.30;;;1.20;;
2548;SDS011;1284;53.520;10.248;2022-09-25T14:25:50;2.30;;;1.30;;
2548;SDS011;1284;53.520;10.248;2022-09-25T14:28:23;1.42;;;1.30;;
2548;SDS011;1284;53.520;10.248;2022-09-25T14:34:00;1.30;;;1.02;;
2548;SDS011;1284;53.520;10.248;2022-09-25T14:47:41;2.30;;;1.10;;
2548;SDS011;1284;53.520;10.248;2022-09-25T14:50:16;3.03;;;1.27;;
2548;SDS011;1284;53.520;10.248;2022-09-25T14:52:45;1.50;;;0.85;;
2548;SDS011;1284;53.520;10.248;2022-09-25T14:55:14;1.38;;;1.10;;
2548;SDS011;1284;53.520;10.248;2022-09-25T14:57:40;3.65;;;1.15;;
2548;SDS011;1284;53.520;10.248;2022-09-25T15:00:06;1.33;;;1.10;;
2548;SDS011;1284;53.520;10.248;2022-09-25T15:02:40;2.08;;;0.82;;
2548;SDS011;1284;53.520;10.248;2022-09-25T15:07:55;1.65;;;1.13;;
2548;SDS011;1284;53.520;10.248;2022-09-25T15:15:42;1.60;;;0.90;;
2548;SDS011;1284;53.520;10.248;2022-09-25T15:18:30;4.35;;;1.10;;
2548;SDS011;1284;53.520;10.248;2022-09-25T15:20:56;1.67;;;0.93;;
2548;SDS011;1284;53.520;10.248;2022-09-25T15:23:24;1.00;;;0.90;;
2548;SDS011;1284;53.520;10.248;2022-09-25T15:25:50;3.90;;;1.05;;
2548;SDS011;1284;53.520;10.248;2022-09-25T15:28:19;1.92;;;0.70;;
2548;SDS011;1284;53.520;10.248;2022-09-25T15:30:58;3.38;;;0.98;;
2548;SDS011;1284;53.520;10.248;2022-09-25T15:33:27;1.23;;;0.60;;
2548;SDS011;1284;53.520;10.248;2022-09-25T15:35:58;1.10;;;0.60;;
2548;SDS011;1284;53.520;10.248;2022-09-25T15:38:33;1.42;;;0.60;;
2548;SDS011;1284;53.520;10.248;2022-09-25T15:41:00;0.80;;;0.70;;
2548;SDS011;1284;53.520;10.248;2022-09-25T15:43:27;2.80;;;1.25;;
2548;SDS011;1284;53.520;10.248;2022-09-25T15:48:52;1.80;;;0.98;;
2548;SDS011;1284;53.520;10.248;2022-09-25T15:51:30;2.03;;;0.90;;
2548;SDS011;1284;53.520;10.248;2022-09-25T15:53:58;1.65;;;0.70;;
2548;SDS011;1284;53.520;10.248;2022-09-25T15:56:27;0.73;;;0.63;;
2548;SDS011;1284;53.520;10.248;2022-09-25T15:59:33;1.15;;;0.70;;
2548;SDS011;1284;53.520;10.248;2022-09-25T16:02:22;6.28;;;0.80;;
2548;SDS011;1284;53.520;10.248;2022-09-25T16:05:09;0.93;;;0.70;;
2548;SDS011;1284;53.520;10.248;2022-09-25T16:07:37;1.10;;;0.60;;
2548;SDS011;1284;53.520;10.248;2022-09-25T16:10:09;1.58;;;0.80;;
2548;SDS011;1284;53.520;10.248;2022-09-25T16:12:53;1.77;;;0.70;;
2548;SDS011;1284;53.520;10.248;2022-09-25T16:17:54;2.40;;;0.88;;
2548;SDS011;1284;53.520;10.248;2022-09-25T16:20:32;1.77;;;0.70;;
2548;SDS011;1284;53.520;10.248;2022-09-25T16:23:00;1.30;;;0.90;;
2548;SDS011;1284;53.520;10.248;2022-09-25T16:25:29;1.17;;;0.60;;
2548;SDS011;1284;53.520;10.248;2022-09-25T16:28:01;3.70;;;0.93;;
2548;SDS011;1284;53.520;10.248;2022-09-25T16:30:29;0.80;;;0.80;;
2548;SDS011;1284;53.520;10.248;2022-09-25T16:32:57;0.77;;;0.70;;
2548;SDS011;1284;53.520;10.248;2022-09-25T16:38:02;1.58;;;0.90;;
2548;SDS011;1284;53.520;10.248;2022-09-25T16:40:30;2.42;;;1.00;;
2548;SDS011;1284;53.520;10.248;2022-09-25T16:42:58;0.85;;;0.82;;
2548;SDS011;1284;53.520;10.248;2022-09-25T16:47:53;2.55;;;1.00;;
2548;SDS011;1284;53.520;10.248;2022-09-25T16:50:22;0.98;;;0.80;;
2548;SDS011;1284;53.520;10.248;2022-09-25T16:52:49;5.57;;;1.00;;
2548;SDS011;1284;53.520;10.248;2022-09-25T16:55:16;1.33;;;1.00;;
2548;SDS011;1284;53.520;10.248;2022-09-25T16:57:52;1.08;;;0.80;;
2548;SDS011;1284;53.520;10.248;2022-09-25T17:00:21;1.15;;;0.88;;
2548;SDS011;1284;53.520;10.248;2022-09-25T17:02:48;0.95;;;0.60;;
2548;SDS011;1284;53.520;10.248;2022-09-25T17:05:15;1.60;;;0.80;;
2548;SDS011;1284;53.520;10.248;2022-09-25T17:07:44;0.93;;;0.50;;
2548;SDS011;1284;53.520;10.248;2022-09-25T17:10:18;1.38;;;0.68;;
2548;SDS011;1284;53.520;10.248;2022-09-25T17:12:47;1.23;;;0.80;;
2548;SDS011;1284;53.520;10.248;2022-09-25T17:15:14;1.45;;;1.10;;
2548;SDS011;1284;53.520;10.248;2022-09-25T17:17:49;1.38;;;0.95;;
2548;SDS011;1284;53.520;10.248;2022-09-25T17:20:18;1.52;;;0.90;;
2548;SDS011;1284;53.520;10.248;2022-09-25T17:22:45;3.00;;;0.82;;
2548;SDS011;1284;53.520;10.248;2022-09-25T17:28:01;0.70;;;0.70;;
2548;SDS011;1284;53.520;10.248;2022-09-25T17:30:26;2.00;;;1.08;;
2548;SDS011;1284;53.520;10.248;2022-09-25T17:32:52;3.88;;;1.40;;
2548;SDS011;1284;53.520;10.248;2022-09-25T17:35:24;4.25;;;1.55;;
2548;SDS011;1284;53.520;10.248;2022-09-25T17:37:53;3.63;;;1.25;;
2548;SDS011;1284;53.520;10.248;2022-09-25T17:40:19;2.10;;;1.23;;
2548;SDS011;1284;53.520;10.248;2022-09-25T17:42:44;2.60;;;1.08;;
2548;SDS011;1284;53.520;10.248;2022-09-25T17:45:27;1.15;;;0.57;;
2548;SDS011;1284;53.520;10.248;2022-09-25T17:47:59;2.40;;;0.88;;
2548;SDS011;1284;53.520;10.248;2022-09-25T17:50:25;1.63;;;1.17;;
2548;SDS011;1284;53.520;10.248;2022-09-25T17:52:51;1.85;;;1.17;;
2548;SDS011;1284;53.520;10.248;2022-09-25T17:55:17;2.38;;;0.73;;
2548;SDS011;1284;53.520;10.248;2022-09-25T17:57:45;1.20;;;0.88;;
2548;SDS011;1284;53.520;10.248;2022-09-25T18:00:11;1.73;;;1.00;;
2548;SDS011;1284;53.520;10.248;2022-09-25T18:02:37;1.10;;;0.95;;
2548;SDS011;1284;53.520;10.248;2022-09-25T18:05:03;2.17;;;1.20;;
2548;SDS011;1284;53.520;10.248;2022-09-25T18:07:28;1.75;;;1.00;;